sensor_id;sensor_type;location;lat;lon;timestamp;pressure;altitude;pressure_sealevel;temperature;humidity
12879;BME280;20617;49.476;10.986;2023-10-13T00:00:10;98384.03;;;17.91;100.00
12879;BME280;20617;49.476;10.986;2023-10-13T00:02:28;98379.31;;;17.83;100.00
12879;BME280;20617;49.476;10.986;2023-10-13T00:04:35;98392.81;;;17.79;100.00
12879;BME280;20617;49.476;10.986;2023-10-13T00:06:41;98385.09;;;17.76;100.00
12879;BME280;20617;49.476;10.986;2023-10-13T00:08:45;98389.81;;;17.71;100.00
12879;BME280;20617;49.476;10.986;2023-10-13T00:10:50;98396.25;;;17.67;100.00
12879;BME280;20617;49.476;10.986;2023-10-13T00:12:59;98389.19;;;17.67;100.00
12879;BME280;20617;49.476;10.986;2023-10-13T00:15:14;98390.78;;;17.70;100.00
12879;BME280;20617;49.476;10.986;2023-10-13T00:17:19;98384.78;;;17.68;100.00
12879;BME280;20617;49.476;10.986;2023-10-13T00:19:28;98379.28;;;17.71;100.00
12879;BME280;20617;49.476;10.986;2023-10-13T00:21:42;98375.72;;;17.72;100.00
12879;BME280;20617;49.476;10.986;2023-10-13T00:23:47;98367.72;;;17.73;100.00
12879;BME280;20617;49.476;10.986;2023-10-13T00:25:57;98363.41;;;17.72;100.00
12879;BME280;20617;49.476;10.986;2023-10-13T00:28:04;98368.53;;;17.74;100.00
12879;BME280;20617;49.476;10.986;2023-10-13T00:30:11;98374.78;;;17.73;100.00
12879;BME280;20617;49.476;10.986;2023-10-13T00:32:24;98364.25;;;17.73;100.00
12879;BME280;20617;49.476;10.986;2023-10-13T00:34:34;98365.81;;;17.75;100.00
12879;BME280;20617;49.476;10.986;2023-10-13T00:36:42;98365.69;;;17.77;100.00
12879;BME280;20617;49.476;10.986;2023-10-13T00:39:12;98355.38;;;17.74;100.00
12879;BME280;20617;49.476;10.986;2023-10-13T00:41:18;98355.28;;;17.75;100.00
12879;BME280;20617;49.476;10.986;2023-10-13T00:43:44;98351.63;;;17.78;100.00
12879;BME280;20617;49.476;10.986;2023-10-13T00:46:06;98350.94;;;17.74;100.00
12879;BME280;20617;49.476;10.986;2023-10-13T00:48:11;98359.59;;;17.76;100.00
12879;BME280;20617;49.476;10.986;2023-10-13T00:50:18;98354.31;;;17.76;100.00
12879;BME280;20617;49.476;10.986;2023-10-13T00:52:23;98347.25;;;17.77;100.00
12879;BME280;20617;49.476;10.986;2023-10-13T00:54:32;98342.13;;;17.75;100.00
12879;BME280;20617;49.476;10.986;2023-10-13T00:56:38;98337.78;;;17.74;100.00
12879;BME280;20617;49.476;10.986;2023-10-13T00:58:49;98338.66;;;17.75;100.00
12879;BME280;20617;49.476;10.986;2023-10-13T01:00:53;98346.44;;;17.76;100.00
12879;BME280;20617;49.476;10.986;2023-10-13T01:03:20;98342.34;;;17.72;100.00
12879;BME280;20617;49.476;10.986;2023-10-13T01:05:29;98344.97;;;17.72;100.00
12879;BME280;20617;49.476;10.986;2023-10-13T01:07:38;98354.44;;;17.75;100.00
12879;BME280;20617;49.476;10.986;2023-10-13T01:09:41;98351.69;;;17.76;100.00
12879;BME280;20617;49.476;10.986;2023-10-13T01:11:50;98349.41;;;17.72;100.00
12879;BME280;20617;49.476;10.986;2023-10-13T01:13:55;98344.97;;;17.72;100.00
12879;BME280;20617;49.476;10.986;2023-10-13T01:16:05;98338.88;;;17.72;100.00
12879;BME280;20617;49.476;10.986;2023-10-13T01:18:09;98343.03;;;17.74;100.00
12879;BME280;20617;49.476;10.986;2023-10-13T01:20:16;98344.84;;;17.74;100.00
12879;BME280;20617;49.476;10.986;2023-10-13T01:22:26;98354.53;;;17.73;100.00
12879;BME280;20617;49.476;10.986;2023-10-13T01:24:35;98346.03;;;17.70;100.00
12879;BME280;20617;49.476;10.986;2023-10-13T01:26:37;98346.44;;;17.63;100.00
12879;BME280;20617;49.476;10.986;2023-10-13T01:28:44;98358.25;;;17.58;100.00
12879;BME280;20617;49.476;10.986;2023-10-13T01:30:48;98355.81;;;17.55;100.00
12879;BME280;20617;49.476;10.986;2023-10-13T01:32:55;98349.72;;;17.54;100.00
12879;BME280;20617;49.476;10.986;2023-10-13T01:35:03;98360.56;;;17.50;100.00
12879;BME280;20617;49.476;10.986;2023-10-13T01:37:09;98355.19;;;17.51;100.00
12879;BME280;20617;49.476;10.986;2023-10-13T01:39:13;98352.75;;;17.48;100.00
12879;BME280;20617;49.476;10.986;2023-10-13T01:41:23;98356.13;;;17.50;100.00
12879;BME280;20617;49.476;10.986;2023-10-13T01:43:26;98361.94;;;17.55;100.00
12879;BME280;20617;49.476;10.986;2023-10-13T01:45:31;98363.94;;;17.52;100.00
12879;BME280;20617;49.476;10.986;2023-10-13T01:47:34;98370.13;;;17.51;100.00
12879;BME280;20617;49.476;10.986;2023-10-13T01:49:41;98369.09;;;17.53;100.00
12879;BME280;20617;49.476;10.986;2023-10-13T01:51:44;98357.84;;;17.51;100.00
12879;BME280;20617;49.476;10.986;2023-10-13T01:53:50;98360.56;;;17.50;100.00
12879;BME280;20617;49.476;10.986;2023-10-13T01:55:58;98362.44;;;17.48;100.00
12879;BME280;20617;49.476;10.986;2023-10-13T01:58:11;98366.03;;;17.47;100.00
12879;BME280;20617;49.476;10.986;2023-10-13T02:00:17;98366.88;;;17.47;100.00
12879;BME280;20617;49.476;10.986;2023-10-13T02:02:23;98355.59;;;17.45;100.00
12879;BME280;20617;49.476;10.986;2023-10-13T02:04:32;98353.84;;;17.46;100.00
12879;BME280;20617;49.476;10.986;2023-10-13T02:06:39;98367.00;;;17.46;100.00
12879;BME280;20617;49.476;10.986;2023-10-13T02:08:41;98375.72;;;17.46;100.00
12879;BME280;20617;49.476;10.986;2023-10-13T02:10:49;98364.34;;;17.46;100.00
12879;BME280;20617;49.476;10.986;2023-10-13T02:12:52;98356.47;;;17.46;100.00
12879;BME280;20617;49.476;10.986;2023-10-13T02:15:00;98354.03;;;17.42;100.00
12879;BME280;20617;49.476;10.986;2023-10-13T02:17:03;98349.81;;;17.40;100.00
12879;BME280;20617;49.476;10.986;2023-10-13T02:19:18;98358.56;;;17.40;100.00
12879;BME280;20617;49.476;10.986;2023-10-13T02:21:22;98358.56;;;17.40;100.00
12879;BME280;20617;49.476;10.986;2023-10-13T02:23:33;98348.66;;;17.44;100.00
12879;BME280;20617;49.476;10.986;2023-10-13T02:25:40;98350.66;;;17.40;100.00
12879;BME280;20617;49.476;10.986;2023-10-13T02:27:48;98361.19;;;17.40;100.00
12879;BME280;20617;49.476;10.986;2023-10-13T02:30:05;98348.13;;;17.39;100.00
12879;BME280;20617;49.476;10.986;2023-10-13T02:32:16;98351.81;;;17.36;100.00
12879;BME280;20617;49.476;10.986;2023-10-13T02:34:20;98348.53;;;17.33;100.00
12879;BME280;20617;49.476;10.986;2023-10-13T02:36:26;98345.09;;;17.32;100.00
12879;BME280;20617;49.476;10.986;2023-10-13T02:38:38;98348.34;;;17.36;100.00
12879;BME280;20617;49.476;10.986;2023-10-13T02:40:48;98350.88;;;17.37;100.00
12879;BME280;20617;49.476;10.986;2023-10-13T02:42:50;98343.59;;;17.41;100.00
12879;BME280;20617;49.476;10.986;2023-10-13T02:44:56;98340.88;;;17.42;100.00
12879;BME280;20617;49.476;10.986;2023-10-13T02:47:03;98326.88;;;17.42;100.00
12879;BME280;20617;49.476;10.986;2023-10-13T02:49:16;98329.63;;;17.40;100.00
12879;BME280;20617;49.476;10.986;2023-10-13T02:51:21;98329.41;;;17.43;100.00
12879;BME280;20617;49.476;10.986;2023-10-13T02:53:33;98320.34;;;17.48;100.00
12879;BME280;20617;49.476;10.986;2023-10-13T02:55:36;98318.44;;;17.50;100.00
12879;BME280;20617;49.476;10.986;2023-10-13T02:57:43;98311.50;;;17.49;100.00
12879;BME280;20617;49.476;10.986;2023-10-13T02:59:48;98314.13;;;17.49;100.00
12879;BME280;20617;49.476;10.986;2023-10-13T03:02:02;98313.09;;;17.51;100.00
12879;BME280;20617;49.476;10.986;2023-10-13T03:04:20;98313.19;;;17.50;100.00
12879;BME280;20617;49.476;10.986;2023-10-13T03:06:28;98308.66;;;17.52;100.00
12879;BME280;20617;49.476;10.986;2023-10-13T03:08:34;98308.75;;;17.50;100.00
12879;BME280;20617;49.476;10.986;2023-10-13T03:10:41;98304.44;;;17.49;100.00
12879;BME280;20617;49.476;10.986;2023-10-13T03:12:52;98312.56;;;17.46;100.00
12879;BME280;20617;49.476;10.986;2023-10-13T03:14:57;98306.47;;;17.46;100.00
12879;BME280;20617;49.476;10.986;2023-10-13T03:17:17;98315.81;;;17.50;100.00
12879;BME280;20617;49.476;10.986;2023-10-13T03:19:35;98314.03;;;17.50;100.00
12879;BME280;20617;49.476;10.986;2023-10-13T03:21:41;98312.22;;;17.51;100.00
12879;BME280;20617;49.476;10.986;2023-10-13T03:23:48;98318.03;;;17.43;100.00
12879;BME280;20617;49.476;10.986;2023-10-13T03:25:51;98314.78;;;17.39;100.00
12879;BME280;20617;49.476;10.986;2023-10-13T03:27:58;98303.59;;;17.36;100.00
12879;BME280;20617;49.476;10.986;2023-10-13T03:30:09;98304.88;;;17.30;100.00
12879;BME280;20617;49.476;10.986;2023-10-13T03:32:20;98298.56;;;17.20;100.00
12879;BME280;20617;49.476;10.986;2023-10-13T03:34:29;98302.47;;;17.14;100.00
12879;BME280;20617;49.476;10.986;2023-10-13T03:36:34;98296.78;;;17.08;100.00
12879;BME280;20617;49.476;10.986;2023-10-13T03:38:51;98302.47;;;17.02;100.00
12879;BME280;20617;49.476;10.986;2023-10-13T03:40:58;98300.75;;;17.01;100.00
12879;BME280;20617;49.476;10.986;2023-10-13T03:43:20;98307.28;;;16.95;100.00
12879;BME280;20617;49.476;10.986;2023-10-13T03:45:27;98313.78;;;16.89;100.00
12879;BME280;20617;49.476;10.986;2023-10-13T03:47:32;98318.41;;;16.86;100.00
12879;BME280;20617;49.476;10.986;2023-10-13T03:49:40;98314.41;;;16.80;100.00
12879;BME280;20617;49.476;10.986;2023-10-13T03:51:47;98326.78;;;16.78;100.00
12879;BME280;20617;49.476;10.986;2023-10-13T03:53:56;98313.75;;;16.77;100.00
12879;BME280;20617;49.476;10.986;2023-10-13T03:56:09;98317.50;;;16.72;100.00
12879;BME280;20617;49.476;10.986;2023-10-13T03:58:16;98317.50;;;16.72;100.00
12879;BME280;20617;49.476;10.986;2023-10-13T04:00:25;98314.03;;;16.72;100.00
12879;BME280;20617;49.476;10.986;2023-10-13T04:02:33;98312.97;;;16.74;100.00
12879;BME280;20617;49.476;10.986;2023-10-13T04:04:38;98306.81;;;16.75;100.00
12879;BME280;20617;49.476;10.986;2023-10-13T04:06:50;98311.19;;;16.75;100.00
12879;BME280;20617;49.476;10.986;2023-10-13T04:08:56;98304.25;;;16.74;100.00
12879;BME280;20617;49.476;10.986;2023-10-13T04:11:14;98304.88;;;16.65;100.00
12879;BME280;20617;49.476;10.986;2023-10-13T04:13:31;98305.56;;;16.54;100.00
12879;BME280;20617;49.476;10.986;2023-10-13T04:16:15;98311.03;;;16.51;100.00
12879;BME280;20617;49.476;10.986;2023-10-13T04:18:40;98308.41;;;16.51;100.00
12879;BME280;20617;49.476;10.986;2023-10-13T04:21:05;98303.06;;;16.52;100.00
12879;BME280;20617;49.476;10.986;2023-10-13T04:23:23;98303.78;;;16.55;100.00
12879;BME280;20617;49.476;10.986;2023-10-13T04:25:28;98298.25;;;16.59;100.00
12879;BME280;20617;49.476;10.986;2023-10-13T04:27:37;98295.41;;;16.62;100.00
12879;BME280;20617;49.476;10.986;2023-10-13T04:29:56;98288.16;;;16.66;100.00
12879;BME280;20617;49.476;10.986;2023-10-13T04:32:12;98289.75;;;16.68;100.00
12879;BME280;20617;49.476;10.986;2023-10-13T04:34:19;98287.84;;;16.70;100.00
12879;BME280;20617;49.476;10.986;2023-10-13T04:36:30;98285.31;;;16.69;100.00
12879;BME280;20617;49.476;10.986;2023-10-13T04:38:48;98287.03;;;16.70;100.00
12879;BME280;20617;49.476;10.986;2023-10-13T04:41:11;98279.97;;;16.70;100.00
12879;BME280;20617;49.476;10.986;2023-10-13T04:43:25;98281.75;;;16.70;100.00
12879;BME280;20617;49.476;10.986;2023-10-13T04:45:59;98272.53;;;16.77;100.00
12879;BME280;20617;49.476;10.986;2023-10-13T04:48:16;98271.28;;;16.83;100.00
12879;BME280;20617;49.476;10.986;2023-10-13T04:50:47;98259.94;;;16.82;100.00
12879;BME280;20617;49.476;10.986;2023-10-13T04:52:52;98252.78;;;16.84;100.00
12879;BME280;20617;49.476;10.986;2023-10-13T04:55:15;98257.09;;;16.85;100.00
12879;BME280;20617;49.476;10.986;2023-10-13T04:57:47;98255.94;;;16.89;100.00
12879;BME280;20617;49.476;10.986;2023-10-13T05:00:03;98247.00;;;16.92;100.00
12879;BME280;20617;49.476;10.986;2023-10-13T05:02:33;98252.03;;;16.95;100.00
12879;BME280;20617;49.476;10.986;2023-10-13T05:04:51;98256.16;;;16.99;100.00
12879;BME280;20617;49.476;10.986;2023-10-13T05:07:11;98238.59;;;17.00;100.00
12879;BME280;20617;49.476;10.986;2023-10-13T05:09:29;98241.31;;;16.98;100.00
12879;BME280;20617;49.476;10.986;2023-10-13T05:11:46;98232.72;;;16.96;100.00
12879;BME280;20617;49.476;10.986;2023-10-13T05:14:04;98242.38;;;16.95;100.00
12879;BME280;20617;49.476;10.986;2023-10-13T05:16:21;98237.00;;;16.97;100.00
12879;BME280;20617;49.476;10.986;2023-10-13T05:18:39;98232.59;;;16.97;100.00
12879;BME280;20617;49.476;10.986;2023-10-13T05:20:56;98230.78;;;16.98;100.00
12879;BME280;20617;49.476;10.986;2023-10-13T05:23:16;98223.03;;;16.96;100.00
12879;BME280;20617;49.476;10.986;2023-10-13T05:25:49;98237.09;;;16.95;100.00
12879;BME280;20617;49.476;10.986;2023-10-13T05:28:06;98233.34;;;17.00;100.00
12879;BME280;20617;49.476;10.986;2023-10-13T05:30:36;98234.91;;;17.02;100.00
12879;BME280;20617;49.476;10.986;2023-10-13T05:32:53;98238.25;;;17.04;100.00
12879;BME280;20617;49.476;10.986;2023-10-13T05:35:11;98242.47;;;17.07;100.00
12879;BME280;20617;49.476;10.986;2023-10-13T05:37:28;98239.75;;;17.08;100.00
12879;BME280;20617;49.476;10.986;2023-10-13T05:39:49;98240.28;;;17.13;100.00
12879;BME280;20617;49.476;10.986;2023-10-13T05:42:06;98238.38;;;17.15;100.00
12879;BME280;20617;49.476;10.986;2023-10-13T05:44:24;98236.34;;;17.19;100.00
12879;BME280;20617;49.476;10.986;2023-10-13T05:46:57;98241.44;;;17.22;100.00
12879;BME280;20617;49.476;10.986;2023-10-13T05:49:45;98230.03;;;17.22;100.00
12879;BME280;20617;49.476;10.986;2023-10-13T05:52:07;98238.69;;;17.24;100.00
12879;BME280;20617;49.476;10.986;2023-10-13T05:54:21;98226.50;;;17.23;100.00
12879;BME280;20617;49.476;10.986;2023-10-13T05:56:41;98235.75;;;17.28;100.00
12879;BME280;20617;49.476;10.986;2023-10-13T05:58:59;98232.38;;;17.26;100.00
12879;BME280;20617;49.476;10.986;2023-10-13T06:01:16;98230.34;;;17.30;100.00
12879;BME280;20617;49.476;10.986;2023-10-13T06:03:36;98232.91;;;17.31;100.00
12879;BME280;20617;49.476;10.986;2023-10-13T06:05:54;98236.03;;;17.36;100.00
12879;BME280;20617;49.476;10.986;2023-10-13T06:08:11;98234.97;;;17.39;100.00
12879;BME280;20617;49.476;10.986;2023-10-13T06:10:29;98235.94;;;17.38;100.00
12879;BME280;20617;49.476;10.986;2023-10-13T06:12:58;98231.50;;;17.38;100.00
12879;BME280;20617;49.476;10.986;2023-10-13T06:15:15;98233.53;;;17.35;100.00
12879;BME280;20617;49.476;10.986;2023-10-13T06:17:33;98227.63;;;17.31;100.00
12879;BME280;20617;49.476;10.986;2023-10-13T06:19:50;98231.53;;;17.26;100.00
12879;BME280;20617;49.476;10.986;2023-10-13T06:22:08;98239.72;;;17.21;100.00
12879;BME280;20617;49.476;10.986;2023-10-13T06:24:25;98238.16;;;17.18;100.00
12879;BME280;20617;49.476;10.986;2023-10-13T06:26:43;98236.56;;;17.16;100.00
12879;BME280;20617;49.476;10.986;2023-10-13T06:29:03;98234.06;;;17.14;100.00
12879;BME280;20617;49.476;10.986;2023-10-13T06:31:11;98229.03;;;17.11;100.00
12879;BME280;20617;49.476;10.986;2023-10-13T06:33:24;98234.59;;;17.07;100.00
12879;BME280;20617;49.476;10.986;2023-10-13T06:35:31;98237.44;;;17.04;100.00
12879;BME280;20617;49.476;10.986;2023-10-13T06:37:36;98232.59;;;16.97;100.00
12879;BME280;20617;49.476;10.986;2023-10-13T06:39:44;98227.75;;;16.91;100.00
12879;BME280;20617;49.476;10.986;2023-10-13T06:41:51;98234.06;;;16.89;100.00
12879;BME280;20617;49.476;10.986;2023-10-13T06:43:59;98227.13;;;16.88;100.00
12879;BME280;20617;49.476;10.986;2023-10-13T06:46:10;98222.09;;;16.85;100.00
12879;BME280;20617;49.476;10.986;2023-10-13T06:48:17;98230.28;;;16.80;100.00
12879;BME280;20617;49.476;10.986;2023-10-13T06:50:22;98226.69;;;16.81;100.00
12879;BME280;20617;49.476;10.986;2023-10-13T06:52:28;98224.06;;;16.81;100.00
12879;BME280;20617;49.476;10.986;2023-10-13T06:54:33;98225.31;;;16.75;100.00
12879;BME280;20617;49.476;10.986;2023-10-13T06:56:39;98228.97;;;16.73;100.00
12879;BME280;20617;49.476;10.986;2023-10-13T06:58:43;98221.09;;;16.73;100.00
12879;BME280;20617;49.476;10.986;2023-10-13T07:00:48;98222.03;;;16.72;100.00
12879;BME280;20617;49.476;10.986;2023-10-13T07:03:03;98226.44;;;16.71;100.00
12879;BME280;20617;49.476;10.986;2023-10-13T07:05:20;98217.81;;;16.69;100.00
12879;BME280;20617;49.476;10.986;2023-10-13T07:07:25;98221.81;;;16.62;100.00
12879;BME280;20617;49.476;10.986;2023-10-13T07:09:30;98225.19;;;16.64;100.00
12879;BME280;20617;49.476;10.986;2023-10-13T07:11:48;98220.56;;;16.68;100.00
12879;BME280;20617;49.476;10.986;2023-10-13T07:13:55;98222.16;;;16.70;100.00
12879;BME280;20617;49.476;10.986;2023-10-13T07:16:03;98221.09;;;16.73;100.00
12879;BME280;20617;49.476;10.986;2023-10-13T07:18:33;98224.25;;;16.78;100.00
12879;BME280;20617;49.476;10.986;2023-10-13T07:20:52;98224.06;;;16.81;100.00
12879;BME280;20617;49.476;10.986;2023-10-13T07:22:59;98213.44;;;16.83;100.00
12879;BME280;20617;49.476;10.986;2023-10-13T07:25:06;98214.06;;;16.86;100.00
12879;BME280;20617;49.476;10.986;2023-10-13T07:27:18;98218.06;;;16.92;100.00
12879;BME280;20617;49.476;10.986;2023-10-13T07:29:28;98216.81;;;16.97;100.00
12879;BME280;20617;49.476;10.986;2023-10-13T07:31:30;98207.78;;;17.02;100.00
12879;BME280;20617;49.476;10.986;2023-10-13T07:33:38;98206.69;;;17.04;100.00
12879;BME280;20617;49.476;10.986;2023-10-13T07:35:43;98202.94;;;17.08;100.00
12879;BME280;20617;49.476;10.986;2023-10-13T07:37:52;98205.97;;;17.15;100.00
12879;BME280;20617;49.476;10.986;2023-10-13T07:40:04;98202.91;;;17.21;100.00
12879;BME280;20617;49.476;10.986;2023-10-13T07:42:24;98203.22;;;17.29;100.00
12879;BME280;20617;49.476;10.986;2023-10-13T07:44:34;98198.47;;;17.34;100.00
12879;BME280;20617;49.476;10.986;2023-10-13T07:46:49;98193.00;;;17.37;100.00
12879;BME280;20617;49.476;10.986;2023-10-13T07:49:03;98194.22;;;17.45;100.00
12879;BME280;20617;49.476;10.986;2023-10-13T07:51:13;98188.44;;;17.52;100.00
12879;BME280;20617;49.476;10.986;2023-10-13T07:53:19;98178.41;;;17.57;100.00
12879;BME280;20617;49.476;10.986;2023-10-13T07:55:24;98186.72;;;17.64;100.00
12879;BME280;20617;49.476;10.986;2023-10-13T07:57:34;98181.00;;;17.70;100.00
12879;BME280;20617;49.476;10.986;2023-10-13T07:59:55;98185.81;;;17.76;100.00
12879;BME280;20617;49.476;10.986;2023-10-13T08:02:12;98184.00;;;17.77;100.00
12879;BME280;20617;49.476;10.986;2023-10-13T08:04:38;98180.63;;;17.87;100.00
12879;BME280;20617;49.476;10.986;2023-10-13T08:06:44;98178.28;;;17.96;100.00
12879;BME280;20617;49.476;10.986;2023-10-13T08:08:51;98172.44;;;18.03;100.00
12879;BME280;20617;49.476;10.986;2023-10-13T08:10:57;98169.25;;;18.11;100.00
12879;BME280;20617;49.476;10.986;2023-10-13T08:13:10;98162.69;;;18.17;100.00
12879;BME280;20617;49.476;10.986;2023-10-13T08:15:16;98162.97;;;18.25;100.00
12879;BME280;20617;49.476;10.986;2023-10-13T08:17:35;98159.75;;;18.32;100.00
12879;BME280;20617;49.476;10.986;2023-10-13T08:19:49;98159.41;;;18.37;100.00
12879;BME280;20617;49.476;10.986;2023-10-13T08:21:55;98158.44;;;18.38;100.00
12879;BME280;20617;49.476;10.986;2023-10-13T08:24:17;98159.16;;;18.40;100.00
12879;BME280;20617;49.476;10.986;2023-10-13T08:26:28;98159.66;;;18.45;100.00
12879;BME280;20617;49.476;10.986;2023-10-13T08:28:59;98157.38;;;18.52;100.00
12879;BME280;20617;49.476;10.986;2023-10-13T08:31:22;98164.00;;;18.58;100.00
12879;BME280;20617;49.476;10.986;2023-10-13T08:33:28;98157.66;;;18.60;100.00
12879;BME280;20617;49.476;10.986;2023-10-13T08:35:39;98162.59;;;18.65;100.00
12879;BME280;20617;49.476;10.986;2023-10-13T08:37:57;98163.03;;;18.70;100.00
12879;BME280;20617;49.476;10.986;2023-10-13T08:40:27;98156.50;;;18.75;100.00
12879;BME280;20617;49.476;10.986;2023-10-13T08:42:45;98156.03;;;18.82;100.00
12879;BME280;20617;49.476;10.986;2023-10-13T08:45:15;98162.38;;;18.90;100.00
12879;BME280;20617;49.476;10.986;2023-10-13T08:47:49;98153.53;;;19.03;100.00
12879;BME280;20617;49.476;10.986;2023-10-13T08:50:09;98150.28;;;19.21;100.00
12879;BME280;20617;49.476;10.986;2023-10-13T08:52:38;98147.13;;;19.39;100.00
12879;BME280;20617;49.476;10.986;2023-10-13T08:54:53;98136.41;;;19.52;100.00
12879;BME280;20617;49.476;10.986;2023-10-13T08:57:30;98141.66;;;19.63;100.00
12879;BME280;20617;49.476;10.986;2023-10-13T08:59:35;98134.56;;;19.75;100.00
12879;BME280;20617;49.476;10.986;2023-10-13T09:01:55;98134.19;;;19.90;100.00
12879;BME280;20617;49.476;10.986;2023-10-13T09:04:02;98130.25;;;20.06;100.00
12879;BME280;20617;49.476;10.986;2023-10-13T09:06:21;98119.59;;;20.28;100.00
12879;BME280;20617;49.476;10.986;2023-10-13T09:08:31;98116.16;;;20.58;100.00
12879;BME280;20617;49.476;10.986;2023-10-13T09:10:37;98121.03;;;20.84;100.00
12879;BME280;20617;49.476;10.986;2023-10-13T09:13:08;98125.97;;;20.98;100.00
12879;BME280;20617;49.476;10.986;2023-10-13T09:15:30;98122.06;;;21.02;100.00
12879;BME280;20617;49.476;10.986;2023-10-13T09:17:56;98126.81;;;20.99;100.00
12879;BME280;20617;49.476;10.986;2023-10-13T09:20:15;98119.28;;;20.94;100.00
12879;BME280;20617;49.476;10.986;2023-10-13T09:22:34;98116.03;;;20.91;100.00
12879;BME280;20617;49.476;10.986;2023-10-13T09:24:42;98119.28;;;20.94;100.00
12879;BME280;20617;49.476;10.986;2023-10-13T09:26:53;98116.63;;;20.94;100.00
12879;BME280;20617;49.476;10.986;2023-10-13T09:28:58;98108.94;;;20.91;100.00
12879;BME280;20617;49.476;10.986;2023-10-13T09:31:01;98112.56;;;20.90;100.00
12879;BME280;20617;49.476;10.986;2023-10-13T09:33:12;98109.19;;;20.88;100.00
12879;BME280;20617;49.476;10.986;2023-10-13T09:35:19;98112.81;;;20.87;100.00
12879;BME280;20617;49.476;10.986;2023-10-13T09:37:27;98101.69;;;20.84;100.00
12879;BME280;20617;49.476;10.986;2023-10-13T09:39:35;98105.03;;;20.86;100.00
12879;BME280;20617;49.476;10.986;2023-10-13T09:41:53;98108.78;;;20.83;100.00
12879;BME280;20617;49.476;10.986;2023-10-13T09:43:57;98101.94;;;20.80;100.00
12879;BME280;20617;49.476;10.986;2023-10-13T09:46:04;98106.13;;;20.83;100.00
12879;BME280;20617;49.476;10.986;2023-10-13T09:48:19;98099.88;;;20.84;100.00
12879;BME280;20617;49.476;10.986;2023-10-13T09:50:36;98101.97;;;20.90;100.00
12879;BME280;20617;49.476;10.986;2023-10-13T09:52:46;98097.41;;;20.92;100.00
12879;BME280;20617;49.476;10.986;2023-10-13T09:54:56;98090.84;;;20.96;100.00
12879;BME280;20617;49.476;10.986;2023-10-13T09:57:10;98088.91;;;20.98;100.00
12879;BME280;20617;49.476;10.986;2023-10-13T09:59:21;98085.72;;;21.05;100.00
12879;BME280;20617;49.476;10.986;2023-10-13T10:01:28;98084.09;;;21.13;100.00
12879;BME280;20617;49.476;10.986;2023-10-13T10:03:44;98078.97;;;21.21;100.00
12879;BME280;20617;49.476;10.986;2023-10-13T10:06:00;98077.16;;;21.32;100.00
12879;BME280;20617;49.476;10.986;2023-10-13T10:08:07;98074.97;;;21.46;100.00
12879;BME280;20617;49.476;10.986;2023-10-13T10:10:21;98070.53;;;21.66;100.00
12879;BME280;20617;49.476;10.986;2023-10-13T10:12:34;98076.94;;;21.83;100.00
12879;BME280;20617;49.476;10.986;2023-10-13T10:14:59;98069.28;;;22.00;100.00
12879;BME280;20617;49.476;10.986;2023-10-13T10:17:11;98067.72;;;22.07;100.00
12879;BME280;20617;49.476;10.986;2023-10-13T10:19:16;98069.97;;;22.11;100.00
12879;BME280;20617;49.476;10.986;2023-10-13T10:21:32;98067.16;;;22.13;100.00
12879;BME280;20617;49.476;10.986;2023-10-13T10:23:38;98073.72;;;22.09;100.00
12879;BME280;20617;49.476;10.986;2023-10-13T10:25:46;98070.09;;;22.10;100.00
12879;BME280;20617;49.476;10.986;2023-10-13T10:28:00;98072.34;;;22.14;100.00
12879;BME280;20617;49.476;10.986;2023-10-13T10:30:07;98072.63;;;22.21;100.00
12879;BME280;20617;49.476;10.986;2023-10-13T10:32:16;98068.28;;;22.30;100.00
12879;BME280;20617;49.476;10.986;2023-10-13T10:34:29;98059.31;;;22.41;100.00
12879;BME280;20617;49.476;10.986;2023-10-13T10:36:35;98060.41;;;22.48;100.00
12879;BME280;20617;49.476;10.986;2023-10-13T10:38:54;98057.28;;;22.62;100.00
12879;BME280;20617;49.476;10.986;2023-10-13T10:41:06;98052.22;;;22.78;100.00
12879;BME280;20617;49.476;10.986;2023-10-13T10:43:18;98041.50;;;22.98;100.00
12879;BME280;20617;49.476;10.986;2023-10-13T10:45:35;98041.88;;;23.13;100.00
12879;BME280;20617;49.476;10.986;2023-10-13T10:47:47;98045.16;;;23.24;100.00
12879;BME280;20617;49.476;10.986;2023-10-13T10:49:55;98041.41;;;23.35;100.00
12879;BME280;20617;49.476;10.986;2023-10-13T10:52:03;98032.41;;;23.46;100.00
12879;BME280;20617;49.476;10.986;2023-10-13T10:54:17;98030.78;;;23.53;100.00
12879;BME280;20617;49.476;10.986;2023-10-13T10:56:24;98038.31;;;23.58;100.00
12879;BME280;20617;49.476;10.986;2023-10-13T10:58:41;98021.38;;;23.59;100.00
12879;BME280;20617;49.476;10.986;2023-10-13T11:00:46;98018.81;;;23.67;100.00
12879;BME280;20617;49.476;10.986;2023-10-13T11:02:55;98013.81;;;23.82;100.00
12879;BME280;20617;49.476;10.986;2023-10-13T11:05:02;98011.91;;;23.92;100.00
12879;BME280;20617;49.476;10.986;2023-10-13T11:07:08;98002.47;;;23.98;100.00
12879;BME280;20617;49.476;10.986;2023-10-13T11:09:13;98002.81;;;24.03;100.00
12879;BME280;20617;49.476;10.986;2023-10-13T11:11:34;98001.72;;;24.13;100.00
12879;BME280;20617;49.476;10.986;2023-10-13T11:13:44;97996.31;;;24.23;99.38
12879;BME280;20617;49.476;10.986;2023-10-13T11:15:53;97992.03;;;24.30;100.00
12879;BME280;20617;49.476;10.986;2023-10-13T11:17:59;97991.25;;;24.38;100.00
12879;BME280;20617;49.476;10.986;2023-10-13T11:20:09;97985.63;;;24.41;100.00
12879;BME280;20617;49.476;10.986;2023-10-13T11:22:20;97979.28;;;24.42;100.00